4XCAU LLHZ-LLHZ

Flight info

Callsign 4XCAU
Flight time 0h 4m
Altitude 1200
Route CVFR
Aircraft C172/L-S/C

Departure

Time 2026-04-27 17:02
Airport Herzliya Airport (LLHZ)

Arrival

Time 2026-04-27 17:06
Airport Herzliya Airport (LLHZ)
Time Latitude Longitude Altitude Speed Heading
2026-04-27 16:54 32.18030 34.83282 101 ft 0 kts 20°
2026-04-27 16:58 32.18038 34.83315 102 ft 22 kts 112°
2026-04-27 16:58 32.17975 34.83522 107 ft 25 kts 109°
2026-04-27 16:58 32.17916 34.83723 116 ft 23 kts 110°
2026-04-27 16:58 32.17882 34.83836 119 ft 7 kts 107°
2026-04-27 16:59 32.17882 34.83839 119 ft 0 kts 101°
2026-04-27 16:59 32.17881 34.83839 119 ft 0 kts 100°
2026-04-27 17:00 32.17919 34.83845 123 ft 4 kts 282°
2026-04-27 17:00 32.17920 34.83835 123 ft 0 kts 281°
2026-04-27 17:01 32.17929 34.83799 121 ft 23 kts 291°
2026-04-27 17:01 32.18041 34.83416 103 ft 74 kts 288°
2026-04-27 17:01 32.18226 34.82768 245 ft 88 kts 285°
2026-04-27 17:01 32.18670 34.82596 425 ft 88 kts 21°
2026-04-27 17:02 32.19115 34.83127 566 ft 98 kts 73°
2026-04-27 17:02 32.19104 34.83824 839 ft 89 kts 95°
2026-04-27 17:02 32.19005 34.84612 856 ft 92 kts 121°
2026-04-27 17:02 32.18451 34.84779 520 ft 96 kts 203°
2026-04-27 17:03 32.17912 34.84393 371 ft 76 kts 236°
2026-04-27 17:03 32.17930 34.83790 125 ft 79 kts 292°
2026-04-27 17:03 32.18081 34.83256 206 ft 70 kts 287°
2026-04-27 17:03 32.18319 34.82644 295 ft 87 kts 315°
2026-04-27 17:04 32.18890 34.82705 377 ft 102 kts 18°
2026-04-27 17:04 32.19155 34.83256 761 ft 66 kts 92°
2026-04-27 17:04 32.19155 34.83861 757 ft 84 kts 94°
2026-04-27 17:04 32.19074 34.84574 793 ft 92 kts 100°
2026-04-27 17:05 32.18968 34.85092 834 ft 104 kts 104°
2026-04-27 17:05 32.18230 34.85421 553 ft 107 kts 197°
2026-04-27 17:05 32.17665 34.85091 499 ft 68 kts 243°
2026-04-27 17:05 32.17645 34.84710 337 ft 76 kts 282°
2026-04-27 17:06 32.17828 34.84120 176 ft 76 kts 290°
2026-04-27 17:06 32.17990 34.83593 109 ft 54 kts 290°
2026-04-27 17:06 32.18060 34.83357 101 ft 12 kts 282°
2026-04-27 17:06 32.18035 34.83326 102 ft 2 kts 197°
2026-04-27 17:07 32.18022 34.83321 102 ft 0 kts 195°